Time;durP1;ratioP1;P1;durP2;ratioP2;P2;SDS_P1;SDS_P2;PMS_P1;PMS_P2;Temp;Humidity;BMP_temperature;BMP_pressure;BME280_temperature;BME280_humidity;BME280_pressure;Samples;Min_cycle;Max_cycle;Signal;HPM_P1;HPM_P2
2022/11/13 00:02:00;;;;;;;87.95;19.27;;;4.30;99.90;;;;;;7612214;19;20235;-73
2022/11/13 00:04:51;;;;;;;104.28;21.08;;;4.20;99.90;;;;;;7615081;19;20018;-74
2022/11/13 00:07:41;;;;;;;47.40;18.27;;;4.20;99.90;;;;;;7617740;19;20014;-74
2022/11/13 00:10:31;;;;;;;89.45;21.15;;;4.20;99.90;;;;;;7609968;19;20019;-74
2022/11/13 00:13:22;;;;;;;94.20;21.27;;;4.20;99.90;;;;;;7617436;19;20018;-75
2022/11/13 00:16:20;;;;;;;45.97;18.35;;;4.20;99.90;;;;;;7608010;19;20042;-74
2022/11/13 00:19:11;;;;;;;77.57;20.00;;;4.20;99.90;;;;;;7597948;19;20048;-73
2022/11/13 00:22:01;;;;;;;58.95;21.60;;;4.20;99.90;;;;;;7579236;19;20011;-74
2022/11/13 00:24:53;;;;;;;62.60;18.73;;;4.20;99.90;;;;;;7575270;19;20033;-74
2022/11/13 00:27:43;;;;;;;140.43;24.92;;;4.20;99.90;;;;;;7585758;19;20014;-74
2022/11/13 00:30:34;;;;;;;135.48;23.42;;;4.20;99.90;;;;;;7586297;19;20363;-74
2022/11/13 00:33:24;;;;;;;86.88;20.42;;;4.10;99.90;;;;;;7602503;19;20010;-76
2022/11/13 00:36:35;;;;;;;183.27;26.05;;;4.20;99.90;;;;;;7614041;19;20142;-75
2022/11/13 00:39:25;;;;;;;118.05;24.63;;;4.20;99.90;;;;;;7610369;19;20022;-75
2022/11/13 00:42:16;;;;;;;116.30;23.33;;;4.20;99.90;;;;;;7610397;19;20014;-74
2022/11/13 00:45:07;;;;;;;148.80;24.70;;;4.20;99.90;;;;;;7589748;19;20018;-74
2022/11/13 00:47:58;;;;;;;90.10;23.50;;;4.10;99.90;;;;;;7584959;19;20019;-74
2022/11/13 00:50:49;;;;;;;143.98;24.30;;;4.10;99.90;;;;;;7578099;19;20383;-75
2022/11/13 00:53:40;;;;;;;108.63;22.60;;;4.10;99.90;;;;;;7584529;19;20014;-74
2022/11/13 00:56:31;;;;;;;152.55;24.83;;;4.10;99.90;;;;;;7570223;19;20014;-75
2022/11/13 00:59:22;;;;;;;197.68;25.92;;;4.00;99.90;;;;;;7577621;19;21021;-76
2022/11/13 01:02:14;;;;;;;247.50;26.75;;;4.00;99.90;;;;;;7577211;19;20750;-74
2022/11/13 01:05:04;;;;;;;120.70;22.50;;;4.00;99.90;;;;;;7583554;19;20021;-74
2022/11/13 01:07:55;;;;;;;197.65;25.98;;;4.00;99.90;;;;;;7564133;19;20865;-73
2022/11/13 01:10:48;;;;;;;201.13;23.55;;;3.90;99.90;;;;;;7571895;19;20490;-74
2022/11/13 01:13:45;;;;;;;93.32;19.73;;;3.90;99.90;;;;;;7597338;19;20082;-76
2022/11/13 01:16:36;;;;;;;161.02;22.70;;;4.00;99.90;;;;;;7585719;19;20010;-75
2022/11/13 01:19:26;;;;;;;215.73;25.92;;;3.90;99.90;;;;;;7594114;19;20065;-76
2022/11/13 01:22:17;;;;;;;230.25;26.13;;;3.90;99.90;;;;;;7576850;19;21672;-74
2022/11/13 01:25:08;;;;;;;158.57;23.42;;;3.80;99.90;;;;;;7596961;19;20011;-75
2022/11/13 01:27:59;;;;;;;241.63;26.98;;;3.80;99.90;;;;;;7578384;19;20038;-75
2022/11/13 01:30:49;;;;;;;224.93;26.45;;;3.80;99.90;;;;;;7597591;19;20018;-75
2022/11/13 01:33:40;;;;;;;123.13;23.23;;;3.80;99.90;;;;;;7604480;19;20158;-75
2022/11/13 01:36:30;;;;;;;104.18;21.40;;;3.80;99.90;;;;;;7610019;19;20037;-73
2022/11/13 01:39:21;;;;;;;106.47;20.45;;;3.80;99.90;;;;;;7609419;19;20022;-76
2022/11/13 01:42:12;;;;;;;208.57;34.40;;;3.80;99.90;;;;;;7617149;19;20026;-75
2022/11/13 01:45:02;;;;;;;139.95;23.73;;;3.80;99.90;;;;;;7612367;19;20014;-75
2022/11/13 01:47:53;;;;;;;173.68;25.35;;;3.80;99.90;;;;;;7601768;19;20064;-73
2022/11/13 01:50:43;;;;;;;189.75;23.73;;;3.70;99.90;;;;;;7603578;19;20052;-75
2022/11/13 01:53:35;;;;;;;167.70;22.48;;;3.80;99.90;;;;;;7587768;19;20022;-73
2022/11/13 01:56:26;;;;;;;164.93;22.98;;;3.80;99.90;;;;;;7600089;19;20078;-75
2022/11/13 01:59:22;;;;;;;120.82;21.08;;;3.80;99.90;;;;;;7608379;19;20018;-74
2022/11/13 02:02:12;;;;;;;155.30;23.05;;;3.80;99.90;;;;;;7607564;19;20019;-73
2022/11/13 02:05:07;;;;;;;133.40;21.15;;;3.80;99.90;;;;;;7603193;19;20015;-74
2022/11/13 02:07:58;;;;;;;149.57;22.90;;;3.70;99.90;;;;;;7610016;19;20026;-74
2022/11/13 02:10:48;;;;;;;105.63;20.00;;;3.80;99.90;;;;;;7607626;19;20023;-74
2022/11/13 02:13:39;;;;;;;146.07;22.85;;;3.80;99.90;;;;;;7577642;19;20018;-76
2022/11/13 02:16:32;;;;;;;88.00;18.83;;;3.80;99.90;;;;;;7604673;19;20165;-75
2022/11/13 02:19:30;;;;;;;102.05;22.58;;;3.80;99.90;;;;;;7605385;19;20022;-74
2022/11/13 02:22:27;;;;;;;143.70;21.95;;;3.70;99.90;;;;;;7600027;19;20961;-75
2022/11/13 02:25:19;;;;;;;145.13;22.23;;;3.70;99.90;;;;;;7584547;19;20489;-75
2022/11/13 02:28:10;;;;;;;70.95;19.67;;;3.70;99.90;;;;;;7598497;19;20018;-75
2022/11/13 02:31:09;;;;;;;110.60;20.92;;;3.70;99.90;;;;;;7606045;19;20118;-76
2022/11/13 02:34:03;;;;;;;118.55;20.80;;;3.70;99.90;;;;;;7605444;19;20031;-74
2022/11/13 02:36:54;;;;;;;121.20;21.58;;;3.60;99.90;;;;;;7597062;19;20021;-74
2022/11/13 02:39:45;;;;;;;142.48;22.88;;;3.70;99.90;;;;;;7589182;19;20014;-75
2022/11/13 02:42:35;;;;;;;88.50;22.63;;;3.70;99.90;;;;;;7601396;19;20533;-74
2022/11/13 02:45:26;;;;;;;81.80;17.90;;;3.60;99.90;;;;;;7597486;19;20006;-75
2022/11/13 02:48:16;;;;;;;52.90;18.08;;;3.70;99.90;;;;;;7606759;19;20100;-76
2022/11/13 02:51:07;;;;;;;157.80;21.08;;;3.70;99.90;;;;;;7613339;19;20423;-76
2022/11/13 02:53:58;;;;;;;86.05;18.27;;;3.70;99.90;;;;;;7585553;19;20022;-74
2022/11/13 02:56:49;;;;;;;75.50;16.58;;;3.60;99.90;;;;;;7598107;19;22888;-75
2022/11/13 02:59:40;;;;;;;59.72;16.45;;;3.60;99.90;;;;;;7589457;19;20038;-74
2022/11/13 03:02:31;;;;;;;76.47;16.35;;;3.60;99.90;;;;;;7595966;19;20018;-75
2022/11/13 03:05:22;;;;;;;111.30;20.90;;;3.60;99.90;;;;;;7601753;19;20019;-74
2022/11/13 03:08:12;;;;;;;62.95;18.35;;;3.60;99.90;;;;;;7595274;19;20014;-73
2022/11/13 03:11:08;;;;;;;140.98;31.20;;;3.40;99.90;;;;;;7603657;19;20035;-74
2022/11/13 03:13:59;;;;;;;88.75;18.25;;;3.40;99.90;;;;;;7590178;19;20029;-74
2022/11/13 03:16:50;;;;;;;87.90;18.42;;;3.40;99.90;;;;;;7593865;19;20027;-72
2022/11/13 03:19:40;;;;;;;105.00;19.55;;;3.40;99.90;;;;;;7579723;19;20022;-76
2022/11/13 03:22:31;;;;;;;102.35;18.75;;;3.30;99.90;;;;;;7590251;19;20105;-74
2022/11/13 03:25:22;;;;;;;61.47;16.27;;;3.30;99.90;;;;;;7581807;19;20906;-74
2022/11/13 03:28:13;;;;;;;137.32;21.25;;;3.40;99.90;;;;;;7590881;19;20075;-74
2022/11/13 03:31:04;;;;;;;229.55;25.20;;;3.30;99.90;;;;;;7582299;19;20493;-75
2022/11/13 03:33:54;;;;;;;246.60;23.75;;;3.20;99.90;;;;;;7578387;19;20020;-74
2022/11/13 03:36:44;;;;;;;250.95;26.90;;;3.20;99.90;;;;;;7602532;19;20486;-75
2022/11/13 03:39:35;;;;;;;225.80;25.98;;;3.30;99.90;;;;;;7591862;19;20015;-75
2022/11/13 03:42:26;;;;;;;184.20;22.00;;;3.30;99.90;;;;;;7581458;19;20010;-75
2022/11/13 03:45:16;;;;;;;211.52;24.83;;;3.30;99.90;;;;;;7577444;19;20018;-75
2022/11/13 03:48:07;;;;;;;346.67;32.00;;;3.30;99.90;;;;;;7576366;19;20029;-74
2022/11/13 03:50:58;;;;;;;282.52;26.98;;;3.30;99.90;;;;;;7577645;19;20011;-73
2022/11/13 03:53:48;;;;;;;215.80;24.83;;;3.30;99.90;;;;;;7596346;19;20010;-74
2022/11/13 03:56:39;;;;;;;153.10;21.38;;;3.30;99.90;;;;;;7594277;19;20018;-75
2022/11/13 03:59:30;;;;;;;158.68;22.52;;;3.30;99.90;;;;;;7589500;19;20018;-74
2022/11/13 04:02:20;;;;;;;151.82;21.60;;;3.40;99.90;;;;;;7581653;19;20023;-74
2022/11/13 04:05:11;;;;;;;114.80;20.38;;;3.40;99.90;;;;;;7581497;19;20021;-73
2022/11/13 04:08:03;;;;;;;170.05;21.17;;;3.40;99.90;;;;;;7598161;19;20018;-74
2022/11/13 04:10:54;;;;;;;161.40;24.30;;;3.40;99.90;;;;;;7595499;19;20470;-73
2022/11/13 04:13:44;;;;;;;231.48;26.00;;;3.40;99.90;;;;;;7593491;19;20468;-74
2022/11/13 04:16:35;;;;;;;169.27;23.83;;;3.30;99.90;;;;;;7594340;19;20018;-75
2022/11/13 04:19:26;;;;;;;147.25;26.10;;;3.40;99.90;;;;;;7604609;19;20035;-76
2022/11/13 04:22:16;;;;;;;113.20;21.30;;;3.40;99.90;;;;;;7595215;19;20416;-74
2022/11/13 04:25:08;;;;;;;112.68;22.00;;;3.40;99.90;;;;;;7590613;19;20014;-75
2022/11/13 04:27:58;;;;;;;125.28;19.85;;;3.40;99.90;;;;;;7578072;19;20028;-73
2022/11/13 04:30:52;;;;;;;162.43;29.17;;;3.50;99.90;;;;;;7580125;19;20022;-74
2022/11/13 04:33:43;;;;;;;178.35;25.70;;;3.40;99.90;;;;;;7576353;19;20122;-75
2022/11/13 04:36:34;;;;;;;144.07;21.85;;;3.40;99.90;;;;;;7578222;19;20013;-75
2022/11/13 04:39:24;;;;;;;161.32;22.38;;;3.40;99.90;;;;;;7594768;19;20022;-75
2022/11/13 04:45:27;;;;;;;117.53;21.17;;;3.40;99.90;;;;;;7583968;19;20026;-74
2022/11/13 04:48:18;;;;;;;159.00;23.70;;;3.40;99.90;;;;;;7588130;19;20645;-74
2022/11/13 04:51:09;;;;;;;93.07;19.85;;;3.30;99.90;;;;;;7602570;19;20015;-74
2022/11/13 04:53:59;;;;;;;125.47;22.05;;;3.30;99.90;;;;;;7592315;19;20018;-73
2022/11/13 04:56:50;;;;;;;163.05;25.50;;;3.30;99.90;;;;;;7588585;19;20490;-73
2022/11/13 04:59:40;;;;;;;111.85;22.55;;;3.30;99.90;;;;;;7588020;19;21619;-74
2022/11/13 05:02:31;;;;;;;99.53;19.33;;;3.30;99.90;;;;;;7571476;19;20018;-74
2022/11/13 05:05:22;;;;;;;138.40;23.15;;;3.30;99.90;;;;;;7582187;19;20014;-73
2022/11/13 05:08:12;;;;;;;152.23;23.95;;;3.30;99.90;;;;;;7594784;19;20052;-74
2022/11/13 05:11:03;;;;;;;70.95;19.95;;;3.20;99.90;;;;;;7581707;19;20014;-74
2022/11/13 05:13:54;;;;;;;138.50;22.95;;;3.20;99.90;;;;;;7593483;19;20015;-75
2022/11/13 05:16:51;;;;;;;89.32;21.77;;;3.30;99.90;;;;;;7592232;19;20910;-74
2022/11/13 05:19:42;;;;;;;54.17;17.92;;;3.30;99.90;;;;;;7573653;19;20636;-73
2022/11/13 05:22:33;;;;;;;61.35;18.13;;;3.30;99.90;;;;;;7595626;19;20033;-74
2022/11/13 05:25:24;;;;;;;75.32;20.15;;;3.30;99.90;;;;;;7580473;19;20458;-73
2022/11/13 05:28:14;;;;;;;148.85;21.10;;;3.30;99.90;;;;;;7576769;19;20093;-73
2022/11/13 05:31:11;;;;;;;165.65;23.35;;;3.30;99.90;;;;;;7586233;19;21283;-72
2022/11/13 05:34:03;;;;;;;96.90;21.15;;;3.30;99.90;;;;;;7569770;19;20106;-74
2022/11/13 05:36:55;;;;;;;145.13;21.08;;;3.30;99.90;;;;;;7577061;19;20010;-73
2022/11/13 05:39:46;;;;;;;105.57;20.17;;;3.30;99.90;;;;;;7586104;19;20486;-75
2022/11/13 05:42:36;;;;;;;90.95;18.20;;;3.30;99.90;;;;;;7576048;19;20022;-75
2022/11/13 05:45:27;;;;;;;124.60;20.27;;;3.30;99.90;;;;;;7591020;19;20790;-76
2022/11/13 05:48:17;;;;;;;136.93;21.13;;;3.30;99.90;;;;;;7594470;19;20726;-75
2022/11/13 05:51:17;;;;;;;121.90;20.67;;;3.30;99.90;;;;;;7592972;19;20022;-76
2022/11/13 05:54:08;;;;;;;91.50;20.63;;;3.20;99.90;;;;;;7577307;19;20026;-74
2022/11/13 05:56:58;;;;;;;98.47;20.90;;;3.10;99.90;;;;;;7596373;19;20587;-74
2022/11/13 05:59:49;;;;;;;99.03;21.67;;;3.10;99.90;;;;;;7591490;19;20034;-74
2022/11/13 06:02:40;;;;;;;121.93;21.80;;;3.10;99.90;;;;;;7585740;19;20960;-74
2022/11/13 06:05:34;;;;;;;80.10;20.48;;;3.10;99.90;;;;;;7586924;19;20014;-75
2022/11/13 06:08:25;;;;;;;69.35;20.10;;;3.10;99.90;;;;;;7592554;19;20023;-74
2022/11/13 06:11:19;;;;;;;117.25;23.70;;;3.00;99.90;;;;;;7581049;19;20042;-73
2022/11/13 06:14:10;;;;;;;127.07;24.38;;;3.00;99.90;;;;;;7571013;19;20866;-74
2022/11/13 06:17:00;;;;;;;94.50;22.13;;;3.00;99.90;;;;;;7569620;19;20022;-73
2022/11/13 06:19:51;;;;;;;107.68;22.48;;;3.00;99.90;;;;;;7595613;19;20029;-74
2022/11/13 06:22:42;;;;;;;89.20;21.70;;;3.00;99.90;;;;;;7581684;19;20240;-73
2022/11/13 06:25:33;;;;;;;143.77;22.83;;;3.00;99.90;;;;;;7589683;19;20010;-74
2022/11/13 06:28:23;;;;;;;96.30;19.65;;;3.00;99.90;;;;;;7607293;19;20045;-74
2022/11/13 06:31:26;;;;;;;151.30;21.75;;;3.00;99.90;;;;;;7602162;19;20033;-75
2022/11/13 06:34:17;;;;;;;119.85;20.50;;;3.00;99.90;;;;;;7596741;19;20055;-74
2022/11/13 06:37:07;;;;;;;60.20;17.40;;;3.00;99.90;;;;;;7578028;19;20093;-75
2022/11/13 06:39:58;;;;;;;96.82;19.70;;;3.00;99.90;;;;;;7538877;19;20014;-75
2022/11/13 06:42:49;;;;;;;173.20;22.77;;;3.00;99.90;;;;;;7563384;19;20022;-73
2022/11/13 06:45:39;;;;;;;86.45;19.30;;;3.00;99.90;;;;;;7584840;19;20359;-74
2022/11/13 06:48:30;;;;;;;165.70;22.38;;;3.10;99.90;;;;;;7570648;19;20041;-75
2022/11/13 06:51:24;;;;;;;60.90;19.20;;;3.10;99.90;;;;;;7605256;19;20754;-74
2022/11/13 06:54:14;;;;;;;68.07;18.23;;;3.10;99.90;;;;;;7575133;19;20018;-74
2022/11/13 06:57:06;;;;;;;103.68;20.23;;;3.10;99.90;;;;;;7586457;19;20517;-72
2022/11/13 06:59:56;;;;;;;53.45;17.30;;;3.10;99.90;;;;;;7584559;19;20133;-73
2022/11/13 07:02:49;;;;;;;122.95;20.05;;;3.10;99.90;;;;;;7579995;19;20022;-74
2022/11/13 07:05:39;;;;;;;141.48;21.48;;;3.10;99.90;;;;;;7587738;19;20035;-73
2022/11/13 07:08:30;;;;;;;83.50;18.23;;;3.10;99.90;;;;;;7576225;19;20094;-74
2022/11/13 07:11:22;;;;;;;112.43;20.63;;;3.20;99.90;;;;;;7577325;19;20019;-74
2022/11/13 07:14:13;;;;;;;191.30;24.95;;;3.20;99.90;;;;;;7558859;19;20070;-73
2022/11/13 07:17:04;;;;;;;123.18;23.77;;;3.20;99.90;;;;;;7572942;19;20094;-73
2022/11/13 07:20:00;;;;;;;78.15;24.85;;;3.20;99.90;;;;;;7573161;19;20006;-73
2022/11/13 07:22:55;;;;;;;255.75;85.53;;;3.20;99.90;;;;;;7591428;19;20018;-73
2022/11/13 07:25:46;;;;;;;302.05;111.88;;;3.20;99.90;;;;;;7579702;19;20445;-74
2022/11/13 07:28:37;;;;;;;202.00;57.65;;;3.20;99.90;;;;;;7570902;19;20093;-73
2022/11/13 07:31:28;;;;;;;299.83;57.00;;;3.20;99.90;;;;;;7595399;19;20098;-74
2022/11/13 07:34:19;;;;;;;245.27;115.30;;;3.10;99.90;;;;;;7577501;19;20093;-74
2022/11/13 07:37:09;;;;;;;165.45;28.75;;;3.10;99.90;;;;;;7595539;19;20014;-74
2022/11/13 07:40:00;;;;;;;296.20;58.13;;;3.10;99.90;;;;;;7580304;19;20022;-73
2022/11/13 07:43:01;;;;;;;125.00;19.30;;;3.10;99.90;;;;;;7594239;19;20640;-74
2022/11/13 07:45:55;;;;;;;207.85;22.77;;;3.00;99.90;;;;;;7596631;19;20014;-74
2022/11/13 07:48:45;;;;;;;187.52;21.45;;;3.00;99.90;;;;;;7581605;19;20011;-76
2022/11/13 07:51:36;;;;;;;46.53;15.98;;;3.00;99.90;;;;;;7595613;19;20659;-73
2022/11/13 07:54:27;;;;;;;119.57;20.33;;;3.00;99.90;;;;;;7586094;19;20957;-76
2022/11/13 07:57:17;;;;;;;128.30;21.40;;;3.10;99.90;;;;;;7596296;19;20101;-75
2022/11/13 08:00:09;;;;;;;90.65;16.88;;;3.10;99.90;;;;;;7587524;19;20778;-75
2022/11/13 08:03:08;;;;;;;91.32;20.30;;;3.20;99.90;;;;;;7602734;19;20007;-74
2022/11/13 08:06:06;;;;;;;40.67;15.68;;;3.20;99.90;;;;;;7599371;19;20014;-72
2022/11/13 08:08:57;;;;;;;73.00;16.60;;;3.20;99.90;;;;;;7599658;19;20018;-74
2022/11/13 08:11:48;;;;;;;32.97;14.68;;;3.30;99.90;;;;;;7597978;19;20695;-74
2022/11/13 08:14:38;;;;;;;90.20;20.13;;;3.40;99.90;;;;;;7603897;19;20038;-74
2022/11/13 08:17:29;;;;;;;73.72;16.42;;;3.40;99.90;;;;;;7595846;19;20025;-75
2022/11/13 08:20:20;;;;;;;95.63;17.33;;;3.50;99.90;;;;;;7610964;19;20150;-75
2022/11/13 08:23:11;;;;;;;190.68;30.23;;;3.50;99.90;;;;;;7598747;19;21119;-73
2022/11/13 08:26:05;;;;;;;40.70;15.15;;;3.30;99.90;;;;;;7597006;19;20041;-74
2022/11/13 08:28:56;;;;;;;104.22;21.88;;;3.20;99.90;;;;;;7601183;19;20642;-73
2022/11/13 08:31:47;;;;;;;86.75;20.27;;;3.30;99.90;;;;;;7608967;19;20018;-74
2022/11/13 08:34:37;;;;;;;58.28;24.92;;;3.40;99.90;;;;;;7586659;19;20014;-74
2022/11/13 08:37:28;;;;;;;75.22;20.70;;;3.50;99.90;;;;;;7591642;19;20010;-74
2022/11/13 08:40:19;;;;;;;56.22;16.08;;;3.60;99.90;;;;;;7605383;19;20674;-75
2022/11/13 08:43:09;;;;;;;161.95;50.10;;;3.60;99.90;;;;;;7600125;19;21274;-73
2022/11/13 08:46:01;;;;;;;110.07;29.73;;;3.70;99.90;;;;;;7613378;19;20034;-74
2022/11/13 08:48:52;;;;;;;129.23;42.05;;;3.70;99.90;;;;;;7616404;19;20525;-73
2022/11/13 08:51:42;;;;;;;110.15;45.13;;;3.70;99.90;;;;;;7619066;19;20118;-75
2022/11/13 08:54:33;;;;;;;46.42;19.67;;;3.80;99.90;;;;;;7612709;19;20186;-75
2022/11/13 08:57:23;;;;;;;38.78;19.40;;;3.90;99.90;;;;;;7617425;19;20045;-74
2022/11/13 09:00:14;;;;;;;60.22;28.40;;;4.00;99.90;;;;;;7609198;19;20006;-74
2022/11/13 09:03:05;;;;;;;60.85;28.42;;;4.10;99.90;;;;;;7604025;19;20014;-73
2022/11/13 09:05:56;;;;;;;71.32;32.70;;;4.10;99.90;;;;;;7617476;19;20041;-74
2022/11/13 09:08:46;;;;;;;35.65;17.58;;;4.20;99.90;;;;;;7595658;19;20078;-73
2022/11/13 09:11:37;;;;;;;38.90;16.92;;;4.10;99.90;;;;;;7613155;19;20022;-75
2022/11/13 09:14:27;;;;;;;33.15;16.48;;;4.20;99.90;;;;;;7613459;19;20014;-74
2022/11/13 09:17:18;;;;;;;62.05;29.70;;;4.20;99.90;;;;;;7593888;19;20021;-75
2022/11/13 09:20:09;;;;;;;39.85;20.38;;;4.30;99.90;;;;;;7607871;19;20737;-74
2022/11/13 09:23:05;;;;;;;36.00;18.88;;;4.30;99.90;;;;;;7610711;19;20094;-74
2022/11/13 09:26:01;;;;;;;34.25;20.20;;;4.30;99.90;;;;;;7615332;19;20413;-75
2022/11/13 09:28:52;;;;;;;36.60;20.80;;;4.30;99.90;;;;;;7606867;19;20798;-75
2022/11/13 09:31:43;;;;;;;29.25;17.42;;;4.40;99.90;;;;;;7615218;19;20049;-74
2022/11/13 09:34:34;;;;;;;30.63;17.65;;;4.40;99.90;;;;;;7588737;19;20021;-73
2022/11/13 09:37:24;;;;;;;37.28;22.23;;;4.60;99.90;;;;;;7572169;19;20018;-74
2022/11/13 09:40:23;;;;;;;27.02;16.52;;;4.70;99.90;;;;;;7595473;19;20780;-74
2022/11/13 09:43:22;;;;;;;28.83;17.30;;;4.70;99.90;;;;;;7602486;19;20626;-74
2022/11/13 09:46:16;;;;;;;25.35;16.98;;;4.70;99.90;;;;;;7607966;19;20022;-73
2022/11/13 09:49:29;;;;;;;24.95;16.30;;;4.80;99.90;;;;;;7599726;19;20018;-75
2022/11/13 09:52:36;;;;;;;28.95;18.60;;;4.80;99.90;;;;;;7591627;19;20015;-74
2022/11/13 09:55:34;;;;;;;32.60;18.83;;;4.90;99.90;;;;;;7583470;19;20018;-74
2022/11/13 09:58:41;;;;;;;26.13;17.05;;;5.10;99.90;;;;;;7602646;19;20956;-74
2022/11/13 10:02:07;;;;;;;25.08;17.45;;;5.10;99.90;;;;;;7600881;19;20029;-74
2022/11/13 10:05:10;;;;;;;23.60;16.15;;;5.20;99.90;;;;;;7581738;19;20026;-75
2022/11/13 10:08:14;;;;;;;24.35;16.60;;;5.20;99.90;;;;;;7586751;19;20018;-75
2022/11/13 10:11:16;;;;;;;22.95;15.68;;;5.30;99.90;;;;;;7592144;19;20014;-75
2022/11/13 10:14:44;;;;;;;29.85;20.58;;;5.40;99.90;;;;;;7579088;19;20022;-75
2022/11/13 10:17:44;;;;;;;27.02;17.70;;;5.50;99.90;;;;;;7572559;19;20022;-76
2022/11/13 10:20:58;;;;;;;30.50;18.52;;;5.70;99.90;;;;;;7579986;19;20018;-76
2022/11/13 10:23:55;;;;;;;24.77;16.92;;;5.90;99.90;;;;;;7610067;19;20018;-77
2022/11/13 10:26:45;;;;;;;23.25;15.02;;;6.10;99.90;;;;;;7573408;19;20022;-75
2022/11/13 10:29:37;;;;;;;21.27;15.30;;;6.20;99.90;;;;;;7586388;19;20014;-75
2022/11/13 10:32:31;;;;;;;25.35;15.57;;;6.40;99.90;;;;;;7574697;19;20010;-75
2022/11/13 10:35:34;;;;;;;22.67;15.65;;;6.40;99.90;;;;;;7584865;19;20955;-75
2022/11/13 10:38:38;;;;;;;26.63;17.52;;;6.40;99.90;;;;;;7526241;19;20022;-75
2022/11/13 10:41:30;;;;;;;21.17;15.15;;;6.40;99.90;;;;;;7575333;19;20467;-75
2022/11/13 10:44:36;;;;;;;25.60;16.20;;;6.40;99.90;;;;;;7586426;19;20041;-75
2022/11/13 10:47:31;;;;;;;24.75;15.70;;;6.60;99.90;;;;;;7575894;19;20023;-76
2022/11/13 10:50:51;;;;;;;;;;;6.60;99.90;;;;;;7567052;19;20027;-76
2022/11/13 10:53:42;;;;;;;22.00;15.25;;;6.80;99.90;;;;;;7584144;19;21405;-76
2022/11/13 10:56:34;;;;;;;20.85;15.23;;;6.90;99.90;;;;;;7575469;19;20021;-77
2022/11/13 10:59:25;;;;;;;20.60;14.00;;;7.10;99.90;;;;;;7511052;19;20007;-77
2022/11/13 11:02:16;;;;;;;18.58;13.93;;;7.20;99.90;;;;;;7559753;19;20904;-76
2022/11/13 11:05:26;;;;;;;21.55;15.10;;;7.20;99.90;;;;;;7559173;19;20018;-77
2022/11/13 11:08:21;;;;;;;20.67;14.27;;;7.00;99.90;;;;;;7563557;19;20054;-76
2022/11/13 11:14:30;;;;;;;22.55;15.20;;;7.20;99.90;;;;;;7567989;19;20010;-76
2022/11/13 11:17:33;;;;;;;21.33;13.43;;;7.20;99.90;;;;;;7562153;19;20014;-76
2022/11/13 11:20:38;;;;;;;17.13;12.60;;;7.40;99.90;;;;;;7580826;19;20018;-75
2022/11/13 11:23:52;;;;;;;18.15;12.38;;;8.40;99.90;;;;;;7582298;19;20029;-76
2022/11/13 11:27:09;;;;;;;14.32;11.10;;;10.50;99.90;;;;;;7584250;19;20014;-76
2022/11/13 11:30:33;;;;;;;14.18;10.18;;;12.30;97.10;;;;;;7571214;19;21384;-75
2022/11/13 11:33:38;;;;;;;15.02;11.02;;;12.10;95.10;;;;;;7578279;19;20039;-76
2022/11/13 11:37:06;;;;;;;14.18;10.82;;;13.70;91.00;;;;;;7574979;19;20010;-77
2022/11/13 11:40:03;;;;;;;12.23;9.85;;;17.60;81.40;;;;;;7587654;19;20014;-76
2022/11/13 11:43:22;;;;;;;13.05;9.88;;;20.80;64.60;;;;;;7590887;19;20010;-77
2022/11/13 11:46:14;;;;;;;10.88;9.07;;;22.40;61.10;;;;;;7578258;19;20568;-76
2022/11/13 11:49:07;;;;;;;11.73;9.63;;;23.80;54.00;;;;;;7589084;19;20057;-74
2022/11/13 11:52:17;;;;;;;12.43;9.70;;;24.50;52.90;;;;;;7611336;19;20030;-76
2022/11/13 11:55:45;;;;;;;12.77;9.75;;;25.20;49.40;;;;;;7607648;19;20018;-76
2022/11/13 11:59:30;;;;;;;10.85;8.90;;;24.20;51.60;;;;;;7580954;19;20529;-77
2022/11/13 12:02:27;;;;;;;15.90;10.67;;;23.00;52.10;;;;;;7594038;19;20033;-76
2022/11/13 12:05:39;;;;;;;15.07;10.57;;;18.20;59.70;;;;;;7592871;19;20659;-76
2022/11/13 12:08:43;;;;;;;16.00;11.00;;;15.00;68.70;;;;;;7601952;19;20014;-76
2022/11/13 12:11:41;;;;;;;15.97;11.30;;;12.80;78.10;;;;;;7589110;19;20121;-77
2022/11/13 12:14:34;;;;;;;16.85;12.30;;;11.70;82.40;;;;;;7586634;19;20010;-77
2022/11/13 12:17:42;;;;;;;19.15;12.40;;;10.90;86.70;;;;;;7603739;19;20010;-76
2022/11/13 12:20:48;;;;;;;18.10;12.32;;;10.80;89.10;;;;;;7567422;19;20015;-76
2022/11/13 12:23:58;;;;;;;18.60;12.05;;;11.70;88.10;;;;;;7588439;19;20066;-76
2022/11/13 12:27:18;;;;;;;17.98;11.98;;;11.20;90.80;;;;;;7574269;19;20018;-76
2022/11/13 12:30:17;;;;;;;22.27;13.05;;;10.90;91.70;;;;;;7593906;19;20018;-77
2022/11/13 12:33:27;;;;;;;24.77;11.93;;;11.00;93.30;;;;;;7585303;19;20014;-76
2022/11/13 12:36:19;;;;;;;18.08;12.15;;;10.90;93.30;;;;;;7570775;19;20037;-75
2022/11/13 12:39:31;;;;;;;17.77;12.82;;;12.80;90.20;;;;;;7598320;19;20025;-75
2022/11/13 12:42:58;;;;;;;16.60;11.50;;;15.60;78.20;;;;;;7583878;19;20081;-75
2022/11/13 12:45:51;;;;;;;20.38;11.95;;;15.50;75.80;;;;;;7589029;19;20097;-74
2022/11/13 12:48:46;;;;;;;16.17;10.82;;;14.20;80.70;;;;;;7586310;19;20026;-75
2022/11/13 12:51:40;;;;;;;16.38;11.77;;;12.90;85.10;;;;;;7542072;19;20018;-74
2022/11/13 12:54:36;;;;;;;15.60;10.88;;;12.40;87.20;;;;;;7583439;19;20011;-75
2022/11/13 12:57:27;;;;;;;19.75;11.98;;;11.60;90.60;;;;;;7573630;19;20006;-75
2022/11/13 13:00:25;;;;;;;16.30;11.40;;;11.10;92.60;;;;;;7571349;19;21184;-75
2022/11/13 13:03:29;;;;;;;15.35;10.43;;;12.20;91.70;;;;;;7548895;19;20015;-75
2022/11/13 13:06:32;;;;;;;14.68;11.73;;;12.20;90.20;;;;;;7574961;19;20022;-77
2022/11/13 13:09:36;;;;;;;16.50;11.07;;;12.70;90.40;;;;;;7599615;19;20097;-76
2022/11/13 13:12:32;;;;;;;14.23;10.52;;;12.90;89.90;;;;;;7600750;19;20616;-77
2022/11/13 13:15:35;;;;;;;16.63;11.50;;;12.90;88.20;;;;;;7608618;19;20010;-76
2022/11/13 13:18:34;;;;;;;13.65;10.80;;;11.80;91.10;;;;;;7599955;19;20046;-77
2022/11/13 13:21:43;;;;;;;16.00;11.30;;;11.40;92.70;;;;;;7611538;19;20025;-76
2022/11/13 13:24:37;;;;;;;16.48;10.05;;;11.30;94.10;;;;;;7597002;19;21158;-75
2022/11/13 13:27:32;;;;;;;14.63;10.50;;;11.80;93.10;;;;;;7595086;19;20458;-75
2022/11/13 13:30:25;;;;;;;16.38;11.18;;;11.70;93.80;;;;;;7586608;19;20015;-76
2022/11/13 13:33:30;;;;;;;16.80;11.30;;;12.00;94.40;;;;;;7568201;19;20014;-75
2022/11/13 13:36:28;;;;;;;13.73;9.98;;;11.60;94.60;;;;;;7593135;19;20006;-76
2022/11/13 13:39:31;;;;;;;17.80;11.25;;;11.50;95.60;;;;;;7617154;19;20015;-76
2022/11/13 13:42:40;;;;;;;14.73;10.80;;;11.80;94.50;;;;;;7610349;19;20019;-75
2022/11/13 13:45:59;;;;;;;14.52;10.48;;;12.10;94.30;;;;;;7614509;19;20019;-75
2022/11/13 13:48:53;;;;;;;14.70;11.02;;;12.70;93.10;;;;;;7613531;19;20969;-78
2022/11/13 13:51:49;;;;;;;13.90;9.18;;;16.60;82.80;;;;;;7612559;19;21521;-76
2022/11/13 13:54:42;;;;;;;12.85;8.80;;;16.00;78.00;;;;;;7609153;19;20018;-75
2022/11/13 13:57:38;;;;;;;15.27;9.90;;;14.50;81.80;;;;;;7588139;19;20023;-76
2022/11/13 14:00:30;;;;;;;14.20;10.32;;;13.60;85.90;;;;;;7597406;19;20616;-76
2022/11/13 14:03:24;;;;;;;15.43;10.38;;;12.80;89.60;;;;;;7569465;19;20014;-76
2022/11/13 14:06:23;;;;;;;17.85;11.07;;;13.30;90.10;;;;;;7596954;19;20763;-77
2022/11/13 14:09:22;;;;;;;11.73;9.25;;;15.80;82.80;;;;;;7593982;19;20023;-77
2022/11/13 14:12:20;;;;;;;16.88;10.40;;;18.30;72.60;;;;;;7615042;19;20018;-75
2022/11/13 14:15:24;;;;;;;11.63;9.57;;;18.10;71.60;;;;;;7585203;19;20029;-75
2022/11/13 14:18:17;;;;;;;13.27;9.73;;;20.10;66.00;;;;;;7573452;19;20019;-75
2022/11/13 14:21:16;;;;;;;12.80;9.70;;;21.60;62.40;;;;;;7587318;19;20011;-75
2022/11/13 14:24:33;;;;;;;11.60;9.77;;;22.10;58.60;;;;;;7577131;19;20026;-76
2022/11/13 14:27:26;;;;;;;12.70;9.10;;;22.40;57.10;;;;;;7586834;19;20476;-77
2022/11/13 14:30:25;;;;;;;9.65;8.43;;;22.20;57.10;;;;;;7591450;19;20018;-76
2022/11/13 14:33:22;;;;;;;11.52;9.27;;;21.10;58.80;;;;;;7578432;19;20538;-76
2022/11/13 14:36:15;;;;;;;11.57;9.38;;;20.80;59.50;;;;;;7596487;19;20022;-76
2022/11/13 14:39:19;;;;;;;12.02;8.95;;;20.50;59.90;;;;;;7565191;19;20026;-76
2022/11/13 14:42:21;;;;;;;10.38;9.07;;;19.50;62.00;;;;;;7586084;19;20109;-77
2022/11/13 14:45:20;;;;;;;13.25;9.40;;;18.90;63.90;;;;;;7569697;19;20023;-76
2022/11/13 14:48:19;;;;;;;11.23;8.82;;;19.40;64.40;;;;;;7575957;19;20487;-76
2022/11/13 14:51:30;;;;;;;10.25;8.43;;;18.30;64.80;;;;;;7564061;19;20031;-77
2022/11/13 14:54:35;;;;;;;14.40;9.70;;;16.20;70.90;;;;;;7580627;19;20022;-77
2022/11/13 14:57:47;;;;;;;14.40;10.43;;;14.60;76.50;;;;;;7575879;19;20026;-76
2022/11/13 15:00:38;;;;;;;16.80;11.32;;;13.60;80.20;;;;;;7566708;19;20356;-76